PWSweather.com
Personal Weather Stations
Station Observations
OBESE
Esslingen Am NeckarDE

Esslingen Am NeckarDE

Lat: 48.72855, Lon: 9.33587

Elevation: 851

Station Type: Davis Vantage pro 2 plus

http://www.wetter-esslingen.info

Latest ConditionsUpdated 12:00:07 PM GMT+01:01 Tuesday, Mar 26, 2019
Currently Today's Max Today's Min Today's Average
Temperature 44.6°F7.0°C 44.6°F7.0°C 35.5°F1.9°C 39.1°F3.9°C
Dew Point 34.3°F1.3°C 35.8°F2.1°C 32.6°F0.3°C 34.4°F1.3°C
Winds 3.5 mph WNW5.6 kmh WNW 3.5 mph -5.6 kmh - - 0.7 mph 1.1 kmh
Wind Gusts 5.8 mph9.3 kmh 5.8 mph9.3 kmh - -
Humidity 67% 90% 67% 83%
Pressure 30.46 in1031.5 mb 30.47 in1031.8 mb 30.33 in1027.1 mb -
Hour Temp Dew Point Humidity Winds Wind Gusts Pressure Precip Precip Rate Daily Precip Total
12:00 PM 44.6°F7.0°C 34.3°F1.3°C 67% 3.5 mph WNW5.6 kmh WNW 5.8 mph9.3 kmh 30.46 in1031.5 mb - 0.00 in0.0 mm 0.00 in0.0 mm
11:30 AM 44.2°F6.8°C 35.1°F1.7°C 70% Calm Calm -- 30.47 in1031.8 mb - 0.00 in0.0 mm 0.00 in0.0 mm
11:00 AM 42.5°F5.8°C 35.8°F2.1°C 77% Calm Calm -- 30.47 in1031.8 mb - 0.00 in0.0 mm 0.00 in0.0 mm
10:30 AM 41.5°F5.3°C 35.1°F1.7°C 78% Calm Calm -- 30.47 in1031.8 mb - 0.00 in0.0 mm 0.00 in0.0 mm
10:00 AM 41.5°F5.3°C 35.5°F1.9°C 79% Calm Calm -- 30.46 in1031.5 mb - 0.00 in0.0 mm 0.00 in0.0 mm
09:30 AM 41.0°F5.0°C 35.6°F2.0°C 81% Calm Calm -- 30.45 in1031.2 mb - 0.00 in0.0 mm 0.00 in0.0 mm
09:00 AM 40.4°F4.7°C 35.7°F2.1°C 83% Calm Calm -- 30.45 in1031.2 mb - 0.00 in0.0 mm 0.00 in0.0 mm
08:30 AM 39.4°F4.1°C 34.9°F1.6°C 84% Calm Calm -- 30.45 in1031.2 mb - 0.00 in0.0 mm 0.00 in0.0 mm
08:00 AM 38.5°F3.6°C 34.7°F1.5°C 86% Calm Calm -- 30.44 in1030.8 mb - 0.00 in0.0 mm 0.00 in0.0 mm
07:30 AM 37.4°F3.0°C 34.2°F1.2°C 88% Calm Calm -- 30.43 in1030.5 mb - 0.00 in0.0 mm 0.00 in0.0 mm
07:00 AM 35.8°F2.1°C 33.2°F0.7°C 90% Calm Calm -- 30.43 in1030.5 mb - 0.00 in0.0 mm 0.00 in0.0 mm
06:30 AM 35.5°F1.9°C 32.6°F0.3°C 89% Calm Calm -- 30.42 in1030.1 mb - 0.00 in0.0 mm 0.00 in0.0 mm
06:00 AM 36.5°F2.5°C 33.3°F0.7°C 88% Calm Calm -- 30.41 in1029.8 mb - 0.00 in0.0 mm 0.00 in0.0 mm
05:30 AM 36.1°F2.3°C 32.9°F0.5°C 88% Calm Calm -- 30.41 in1029.8 mb - 0.00 in0.0 mm 0.00 in0.0 mm
05:00 AM 36.5°F2.5°C 33.3°F0.7°C 88% Calm Calm -- 30.40 in1029.5 mb - 0.00 in0.0 mm 0.00 in0.0 mm
04:30 AM 36.7°F2.6°C 33.2°F0.7°C 87% 1.2 mph W1.9 kmh W 1.2 mph1.9 kmh 30.39 in1029.1 mb - 0.00 in0.0 mm 0.00 in0.0 mm
04:00 AM 37.4°F3.0°C 33.3°F0.7°C 85% Calm Calm -- 30.38 in1028.8 mb - 0.00 in0.0 mm 0.00 in0.0 mm
03:30 AM 38.1°F3.4°C 33.7°F0.9°C 84% 2.3 mph NW3.7 kmh NW 3.5 mph5.6 kmh 30.37 in1028.4 mb - 0.00 in0.0 mm 0.00 in0.0 mm
03:00 AM 38.8°F3.8°C 34.1°F1.2°C 83% 3.5 mph NNW5.6 kmh NNW 5.8 mph9.3 kmh 30.37 in1028.4 mb - 0.00 in0.0 mm 0.00 in0.0 mm
02:30 AM 39.1°F3.9°C 34.3°F1.3°C 83% 2.3 mph WNW3.7 kmh WNW 5.8 mph9.3 kmh 30.37 in1028.4 mb - 0.00 in0.0 mm 0.00 in0.0 mm
02:00 AM 39.3°F4.1°C 34.6°F1.4°C 83% 1.2 mph NNE1.9 kmh NNE 3.5 mph5.6 kmh 30.36 in1028.1 mb - 0.00 in0.0 mm 0.00 in0.0 mm
01:30 AM 39.2°F4.0°C 34.8°F1.6°C 84% Calm Calm -- 30.36 in1028.1 mb - 0.00 in0.0 mm 0.00 in0.0 mm
01:00 AM 39.1°F3.9°C 34.7°F1.5°C 84% Calm Calm -- 30.34 in1027.4 mb - 0.00 in0.0 mm 0.00 in0.0 mm
12:30 AM 39.4°F4.1°C 35.0°F1.7°C 84% Calm Calm 1.2 mph1.9 kmh 30.33 in1027.1 mb - 0.00 in0.0 mm 0.00 in0.0 mm
12:00 AM 39.4°F4.1°C 34.9°F1.6°C 84% 2.3 mph NW3.7 kmh NW 5.8 mph9.3 kmh 30.33 in1027.1 mb - 0.00 in0.0 mm 0.00 in0.0 mm